N985MB TFFJ-TISX
Flight info
| Callsign | N985MB |
|---|---|
| Flight time | 0h 54m |
| Altitude | 6000 |
| Route | PJM GOUDA COY |
| Aircraft | B412/L-SDFGRY/C |
Departure
| Time | 2026-04-23 23:42 |
|---|---|
| Airport | St. Jean Airport (TFFJ) |
Arrival
| Time | 2026-04-24 00:36 |
|---|---|
| Airport | Henry E. Rohlsen Airport (TISX) |
| Time | Latitude | Longitude | Altitude | Speed | Heading |
|---|---|---|---|---|---|
| 2026-04-23 23:42 | 17.92261 | -62.88342 | 1964 ft | 85 kts | 303° |
| 2026-04-23 23:42 | 17.92525 | -62.88881 | 2153 ft | 82 kts | 308° |
| 2026-04-23 23:43 | 17.92795 | -62.89410 | 2345 ft | 82 kts | 307° |
| 2026-04-23 23:43 | 17.93063 | -62.89947 | 2529 ft | 86 kts | 306° |
| 2026-04-23 23:43 | 17.93353 | -62.90520 | 2714 ft | 92 kts | 306° |
| 2026-04-23 23:43 | 17.93667 | -62.91139 | 2897 ft | 99 kts | 303° |
| 2026-04-23 23:44 | 17.93992 | -62.91781 | 3087 ft | 100 kts | 304° |
| 2026-04-23 23:44 | 17.94314 | -62.92443 | 3229 ft | 102 kts | 304° |
| 2026-04-23 23:44 | 17.94641 | -62.93113 | 3402 ft | 105 kts | 303° |
| 2026-04-23 23:44 | 17.94988 | -62.93808 | 3577 ft | 111 kts | 303° |
| 2026-04-23 23:45 | 17.95347 | -62.94539 | 3763 ft | 113 kts | 303° |
| 2026-04-23 23:45 | 17.95708 | -62.95275 | 3951 ft | 115 kts | 303° |
| 2026-04-23 23:45 | 17.96076 | -62.96029 | 4140 ft | 116 kts | 302° |
| 2026-04-23 23:45 | 17.96443 | -62.96779 | 4333 ft | 116 kts | 301° |
| 2026-04-23 23:46 | 17.96813 | -62.97531 | 4525 ft | 116 kts | 301° |
| 2026-04-23 23:46 | 17.97185 | -62.98283 | 4714 ft | 116 kts | 301° |
| 2026-04-23 23:46 | 17.97559 | -62.99043 | 4909 ft | 116 kts | 301° |
| 2026-04-23 23:46 | 17.97921 | -62.99784 | 5098 ft | 115 kts | 301° |
| 2026-04-23 23:47 | 17.98288 | -63.00539 | 5291 ft | 115 kts | 301° |
| 2026-04-23 23:47 | 17.98650 | -63.01281 | 5481 ft | 115 kts | 301° |
| 2026-04-23 23:47 | 17.99016 | -63.02032 | 5672 ft | 115 kts | 300° |
| 2026-04-23 23:47 | 17.99385 | -63.02781 | 5814 ft | 115 kts | 300° |
| 2026-04-23 23:48 | 17.99749 | -63.03543 | 5886 ft | 116 kts | 300° |
| 2026-04-23 23:48 | 18.00142 | -63.04337 | 5908 ft | 136 kts | 299° |
| 2026-04-23 23:48 | 18.00604 | -63.05250 | 5958 ft | 144 kts | 299° |
| 2026-04-23 23:48 | 18.01063 | -63.06197 | 5974 ft | 147 kts | 299° |
| 2026-04-23 23:49 | 18.01996 | -63.08128 | 5978 ft | 149 kts | 299° |
| 2026-04-23 23:49 | 18.02475 | -63.09108 | 5976 ft | 149 kts | 300° |
| 2026-04-23 23:49 | 18.02951 | -63.10085 | 5974 ft | 149 kts | 299° |
| 2026-04-23 23:50 | 18.03423 | -63.11053 | 5976 ft | 149 kts | 300° |
| 2026-04-23 23:50 | 18.03642 | -63.12122 | 5974 ft | 152 kts | 271° |
| 2026-04-23 23:50 | 18.03580 | -63.13227 | 5976 ft | 151 kts | 262° |
| 2026-04-23 23:50 | 18.03357 | -63.14302 | 5978 ft | 151 kts | 257° |
| 2026-04-23 23:51 | 18.03136 | -63.15374 | 5979 ft | 150 kts | 259° |
| 2026-04-23 23:51 | 18.02939 | -63.16455 | 5980 ft | 150 kts | 260° |
| 2026-04-23 23:51 | 18.02734 | -63.17539 | 5980 ft | 151 kts | 259° |
| 2026-04-23 23:51 | 18.02530 | -63.18615 | 5977 ft | 151 kts | 260° |
| 2026-04-23 23:52 | 18.02326 | -63.19699 | 5978 ft | 151 kts | 259° |
| 2026-04-23 23:52 | 18.02118 | -63.20791 | 5979 ft | 151 kts | 259° |
| 2026-04-23 23:52 | 18.01915 | -63.21871 | 5980 ft | 151 kts | 259° |
| 2026-04-23 23:52 | 18.01714 | -63.22950 | 5983 ft | 150 kts | 259° |
| 2026-04-23 23:53 | 18.01512 | -63.24023 | 5984 ft | 149 kts | 259° |
| 2026-04-23 23:53 | 18.01309 | -63.25097 | 5977 ft | 149 kts | 259° |
| 2026-04-23 23:53 | 18.01106 | -63.26159 | 5971 ft | 150 kts | 259° |
| 2026-04-23 23:53 | 18.00903 | -63.27242 | 5968 ft | 150 kts | 259° |
| 2026-04-23 23:54 | 18.00697 | -63.28327 | 5966 ft | 151 kts | 259° |
| 2026-04-23 23:54 | 18.00493 | -63.29401 | 5969 ft | 151 kts | 259° |
| 2026-04-23 23:54 | 18.00286 | -63.30488 | 5978 ft | 151 kts | 259° |
| 2026-04-23 23:54 | 18.00078 | -63.31582 | 5979 ft | 151 kts | 259° |
| 2026-04-23 23:55 | 17.99874 | -63.32663 | 5972 ft | 151 kts | 260° |
| 2026-04-23 23:55 | 17.99667 | -63.33745 | 5962 ft | 151 kts | 259° |
| 2026-04-23 23:55 | 17.99462 | -63.34827 | 5972 ft | 151 kts | 259° |
| 2026-04-23 23:55 | 17.99259 | -63.35920 | 5980 ft | 151 kts | 259° |
| 2026-04-23 23:56 | 17.99058 | -63.36989 | 5979 ft | 151 kts | 259° |
| 2026-04-23 23:56 | 17.98853 | -63.38078 | 5979 ft | 150 kts | 259° |
| 2026-04-23 23:56 | 17.98651 | -63.39151 | 5977 ft | 150 kts | 259° |
| 2026-04-23 23:56 | 17.98446 | -63.40225 | 5977 ft | 150 kts | 259° |
| 2026-04-23 23:57 | 17.98239 | -63.41307 | 5979 ft | 150 kts | 259° |
| 2026-04-23 23:57 | 17.98034 | -63.42375 | 5975 ft | 150 kts | 259° |
| 2026-04-23 23:57 | 17.97824 | -63.43454 | 5974 ft | 150 kts | 259° |
| 2026-04-23 23:57 | 17.97618 | -63.44541 | 5969 ft | 152 kts | 259° |
| 2026-04-23 23:58 | 17.97414 | -63.45627 | 5971 ft | 151 kts | 259° |
| 2026-04-23 23:58 | 17.97209 | -63.46707 | 5973 ft | 151 kts | 259° |
| 2026-04-23 23:58 | 17.97001 | -63.47790 | 5975 ft | 151 kts | 259° |
| 2026-04-23 23:58 | 17.96793 | -63.48867 | 5977 ft | 151 kts | 259° |
| 2026-04-23 23:59 | 17.96584 | -63.49958 | 5977 ft | 150 kts | 259° |
| 2026-04-23 23:59 | 17.96379 | -63.51026 | 5973 ft | 151 kts | 260° |
| 2026-04-23 23:59 | 17.96170 | -63.52117 | 5970 ft | 151 kts | 259° |
| 2026-04-23 23:59 | 17.95968 | -63.53189 | 5968 ft | 150 kts | 259° |
| 2026-04-24 00:00 | 17.95765 | -63.54274 | 5966 ft | 150 kts | 259° |
| 2026-04-24 00:00 | 17.95563 | -63.55347 | 5964 ft | 150 kts | 259° |
| 2026-04-24 00:00 | 17.95359 | -63.56424 | 5963 ft | 149 kts | 259° |
| 2026-04-24 00:00 | 17.95156 | -63.57487 | 5959 ft | 150 kts | 259° |
| 2026-04-24 00:01 | 17.94950 | -63.58564 | 5963 ft | 151 kts | 259° |
| 2026-04-24 00:01 | 17.94742 | -63.59658 | 5967 ft | 151 kts | 259° |
| 2026-04-24 00:01 | 17.94537 | -63.60724 | 5971 ft | 150 kts | 259° |
| 2026-04-24 00:01 | 17.94332 | -63.61794 | 5976 ft | 148 kts | 259° |
| 2026-04-24 00:02 | 17.94123 | -63.62873 | 5977 ft | 151 kts | 259° |
| 2026-04-24 00:02 | 17.93915 | -63.63953 | 5988 ft | 151 kts | 260° |
| 2026-04-24 00:02 | 17.93708 | -63.65027 | 5993 ft | 151 kts | 259° |
| 2026-04-24 00:02 | 17.93503 | -63.66118 | 5992 ft | 151 kts | 260° |
| 2026-04-24 00:03 | 17.93304 | -63.67189 | 5998 ft | 149 kts | 259° |
| 2026-04-24 00:03 | 17.93103 | -63.68256 | 5994 ft | 148 kts | 259° |
| 2026-04-24 00:03 | 17.92899 | -63.69315 | 5991 ft | 148 kts | 259° |
| 2026-04-24 00:03 | 17.92699 | -63.70374 | 5988 ft | 148 kts | 259° |
| 2026-04-24 00:04 | 17.92498 | -63.71430 | 5985 ft | 148 kts | 259° |
| 2026-04-24 00:04 | 17.92297 | -63.72494 | 5982 ft | 148 kts | 259° |
| 2026-04-24 00:04 | 17.92095 | -63.73555 | 5981 ft | 148 kts | 259° |
| 2026-04-24 00:04 | 17.91893 | -63.74614 | 5983 ft | 148 kts | 259° |
| 2026-04-24 00:05 | 17.91692 | -63.75675 | 5985 ft | 147 kts | 259° |
| 2026-04-24 00:05 | 17.91491 | -63.76730 | 5987 ft | 147 kts | 259° |
| 2026-04-24 00:05 | 17.91289 | -63.77786 | 5988 ft | 147 kts | 259° |
| 2026-04-24 00:05 | 17.91087 | -63.78847 | 5988 ft | 147 kts | 259° |
| 2026-04-24 00:06 | 17.90889 | -63.79895 | 5987 ft | 147 kts | 259° |
| 2026-04-24 00:06 | 17.90686 | -63.80959 | 5986 ft | 147 kts | 259° |
| 2026-04-24 00:06 | 17.90484 | -63.82013 | 5985 ft | 148 kts | 259° |
| 2026-04-24 00:06 | 17.90282 | -63.83073 | 5984 ft | 147 kts | 259° |
| 2026-04-24 00:07 | 17.90082 | -63.84122 | 5985 ft | 147 kts | 259° |
| 2026-04-24 00:07 | 17.89881 | -63.85181 | 5985 ft | 147 kts | 259° |
| 2026-04-24 00:07 | 17.89676 | -63.86240 | 5984 ft | 148 kts | 259° |
| 2026-04-24 00:07 | 17.89473 | -63.87291 | 5982 ft | 149 kts | 258° |
| 2026-04-24 00:08 | 17.89269 | -63.88364 | 5981 ft | 149 kts | 259° |
| 2026-04-24 00:08 | 17.89062 | -63.89445 | 5976 ft | 150 kts | 259° |
| 2026-04-24 00:08 | 17.88859 | -63.90508 | 5974 ft | 149 kts | 259° |
| 2026-04-24 00:08 | 17.88654 | -63.91577 | 5974 ft | 149 kts | 259° |
| 2026-04-24 00:09 | 17.88451 | -63.92638 | 5975 ft | 149 kts | 259° |
| 2026-04-24 00:09 | 17.88247 | -63.93704 | 5977 ft | 148 kts | 259° |
| 2026-04-24 00:09 | 17.88040 | -63.94773 | 5976 ft | 149 kts | 259° |
| 2026-04-24 00:09 | 17.87834 | -63.95840 | 5976 ft | 149 kts | 259° |
| 2026-04-24 00:10 | 17.87625 | -63.96916 | 5976 ft | 149 kts | 259° |
| 2026-04-24 00:10 | 17.87414 | -63.97987 | 5972 ft | 149 kts | 259° |
| 2026-04-24 00:10 | 17.87210 | -63.99052 | 5969 ft | 149 kts | 259° |
| 2026-04-24 00:10 | 17.87006 | -64.00112 | 5967 ft | 149 kts | 260° |
| 2026-04-24 00:11 | 17.86805 | -64.01176 | 5965 ft | 148 kts | 259° |
| 2026-04-24 00:11 | 17.86602 | -64.02238 | 5963 ft | 148 kts | 259° |
| 2026-04-24 00:11 | 17.86400 | -64.03293 | 5963 ft | 148 kts | 259° |
| 2026-04-24 00:11 | 17.86198 | -64.04353 | 5963 ft | 148 kts | 259° |
| 2026-04-24 00:12 | 17.85994 | -64.05426 | 5961 ft | 149 kts | 259° |
| 2026-04-24 00:12 | 17.85793 | -64.06499 | 5959 ft | 149 kts | 259° |
| 2026-04-24 00:12 | 17.85590 | -64.07564 | 5963 ft | 149 kts | 259° |
| 2026-04-24 00:12 | 17.85386 | -64.08631 | 5967 ft | 149 kts | 259° |
| 2026-04-24 00:13 | 17.85181 | -64.09699 | 5971 ft | 149 kts | 259° |
| 2026-04-24 00:13 | 17.84975 | -64.10769 | 5974 ft | 149 kts | 259° |
| 2026-04-24 00:13 | 17.84769 | -64.11835 | 5976 ft | 149 kts | 259° |
| 2026-04-24 00:13 | 17.84560 | -64.12899 | 5976 ft | 149 kts | 259° |
| 2026-04-24 00:14 | 17.84348 | -64.13966 | 5971 ft | 149 kts | 259° |
| 2026-04-24 00:14 | 17.84139 | -64.15028 | 5968 ft | 149 kts | 259° |
| 2026-04-24 00:14 | 17.83935 | -64.16090 | 5965 ft | 148 kts | 259° |
| 2026-04-24 00:14 | 17.83733 | -64.17149 | 5963 ft | 149 kts | 259° |
| 2026-04-24 00:15 | 17.83531 | -64.18218 | 5960 ft | 149 kts | 259° |
| 2026-04-24 00:15 | 17.83327 | -64.19288 | 5961 ft | 149 kts | 259° |
| 2026-04-24 00:15 | 17.83122 | -64.20354 | 5965 ft | 149 kts | 259° |
| 2026-04-24 00:15 | 17.82917 | -64.21425 | 5967 ft | 149 kts | 259° |
| 2026-04-24 00:16 | 17.82714 | -64.22475 | 5969 ft | 148 kts | 259° |
| 2026-04-24 00:16 | 17.82508 | -64.23541 | 5970 ft | 149 kts | 259° |
| 2026-04-24 00:16 | 17.82299 | -64.24610 | 5970 ft | 150 kts | 259° |
| 2026-04-24 00:16 | 17.82087 | -64.25688 | 5972 ft | 149 kts | 259° |
| 2026-04-24 00:17 | 17.81880 | -64.26739 | 5979 ft | 147 kts | 259° |
| 2026-04-24 00:17 | 17.81672 | -64.27801 | 5979 ft | 148 kts | 259° |
| 2026-04-24 00:17 | 17.81467 | -64.28864 | 5978 ft | 148 kts | 259° |
| 2026-04-24 00:17 | 17.81267 | -64.29926 | 5974 ft | 150 kts | 259° |
| 2026-04-24 00:18 | 17.81061 | -64.31002 | 5977 ft | 150 kts | 259° |
| 2026-04-24 00:18 | 17.80853 | -64.32080 | 5980 ft | 149 kts | 259° |
| 2026-04-24 00:18 | 17.80648 | -64.33136 | 5984 ft | 148 kts | 259° |
| 2026-04-24 00:18 | 17.80442 | -64.34202 | 5985 ft | 148 kts | 259° |
| 2026-04-24 00:19 | 17.80235 | -64.35269 | 5984 ft | 149 kts | 259° |
| 2026-04-24 00:19 | 17.80030 | -64.36324 | 5983 ft | 149 kts | 259° |
| 2026-04-24 00:19 | 17.79821 | -64.37404 | 5981 ft | 149 kts | 259° |
| 2026-04-24 00:19 | 17.79615 | -64.38462 | 5980 ft | 149 kts | 259° |
| 2026-04-24 00:20 | 17.79408 | -64.39532 | 5979 ft | 149 kts | 259° |
| 2026-04-24 00:20 | 17.79202 | -64.40591 | 5978 ft | 150 kts | 259° |
| 2026-04-24 00:20 | 17.78991 | -64.41673 | 5974 ft | 150 kts | 259° |
| 2026-04-24 00:20 | 17.78783 | -64.42738 | 5972 ft | 150 kts | 259° |
| 2026-04-24 00:21 | 17.78569 | -64.43819 | 5972 ft | 150 kts | 259° |
| 2026-04-24 00:21 | 17.78362 | -64.44878 | 5974 ft | 149 kts | 259° |
| 2026-04-24 00:21 | 17.78156 | -64.45946 | 5977 ft | 149 kts | 259° |
| 2026-04-24 00:21 | 17.77950 | -64.47013 | 5978 ft | 149 kts | 259° |
| 2026-04-24 00:22 | 17.77742 | -64.48086 | 5977 ft | 149 kts | 259° |
| 2026-04-24 00:22 | 17.77538 | -64.49152 | 5977 ft | 149 kts | 259° |
| 2026-04-24 00:22 | 17.77330 | -64.50214 | 5978 ft | 149 kts | 259° |
| 2026-04-24 00:22 | 17.77121 | -64.51292 | 5978 ft | 149 kts | 259° |
| 2026-04-24 00:23 | 17.76914 | -64.52357 | 5977 ft | 150 kts | 259° |
| 2026-04-24 00:23 | 17.76702 | -64.53441 | 5976 ft | 151 kts | 259° |
| 2026-04-24 00:23 | 17.76492 | -64.54514 | 5978 ft | 149 kts | 259° |
| 2026-04-24 00:23 | 17.76281 | -64.55585 | 5979 ft | 149 kts | 259° |
| 2026-04-24 00:24 | 17.76069 | -64.56661 | 5975 ft | 151 kts | 259° |
| 2026-04-24 00:24 | 17.75859 | -64.57737 | 5979 ft | 150 kts | 259° |
| 2026-04-24 00:24 | 17.75653 | -64.58793 | 5987 ft | 149 kts | 259° |
| 2026-04-24 00:24 | 17.75444 | -64.59862 | 5963 ft | 148 kts | 258° |
| 2026-04-24 00:25 | 17.75238 | -64.60918 | 5800 ft | 147 kts | 259° |
| 2026-04-24 00:25 | 17.75031 | -64.61968 | 5611 ft | 149 kts | 258° |
| 2026-04-24 00:25 | 17.74821 | -64.63037 | 5420 ft | 149 kts | 259° |
| 2026-04-24 00:25 | 17.74611 | -64.64111 | 5230 ft | 150 kts | 259° |
| 2026-04-24 00:26 | 17.74405 | -64.65166 | 5042 ft | 149 kts | 259° |
| 2026-04-24 00:26 | 17.74194 | -64.66247 | 4848 ft | 149 kts | 259° |
| 2026-04-24 00:26 | 17.73986 | -64.67314 | 4660 ft | 149 kts | 259° |
| 2026-04-24 00:26 | 17.73779 | -64.68366 | 4490 ft | 149 kts | 260° |
| 2026-04-24 00:27 | 17.73569 | -64.69440 | 4410 ft | 148 kts | 259° |
| 2026-04-24 00:27 | 17.73310 | -64.70474 | 4346 ft | 149 kts | 254° |
| 2026-04-24 00:27 | 17.72987 | -64.71511 | 4310 ft | 149 kts | 252° |
| 2026-04-24 00:27 | 17.72644 | -64.72546 | 4302 ft | 147 kts | 252° |
| 2026-04-24 00:28 | 17.72316 | -64.73548 | 4301 ft | 146 kts | 252° |
| 2026-04-24 00:28 | 17.71985 | -64.74564 | 4281 ft | 146 kts | 252° |
| 2026-04-24 00:28 | 17.71656 | -64.75568 | 4122 ft | 147 kts | 252° |
| 2026-04-24 00:28 | 17.71327 | -64.76578 | 3937 ft | 147 kts | 252° |
| 2026-04-24 00:29 | 17.70993 | -64.77608 | 3742 ft | 148 kts | 251° |
| 2026-04-24 00:29 | 17.70665 | -64.78626 | 3553 ft | 148 kts | 251° |
| 2026-04-24 00:29 | 17.70328 | -64.79656 | 3361 ft | 148 kts | 251° |
| 2026-04-24 00:29 | 17.69981 | -64.80666 | 3172 ft | 147 kts | 250° |
| 2026-04-24 00:30 | 17.69634 | -64.81671 | 2983 ft | 147 kts | 250° |
| 2026-04-24 00:30 | 17.69283 | -64.82680 | 2793 ft | 147 kts | 250° |
| 2026-04-24 00:30 | 17.68931 | -64.83684 | 2603 ft | 147 kts | 250° |
| 2026-04-24 00:30 | 17.68575 | -64.84690 | 2413 ft | 146 kts | 250° |
| 2026-04-24 00:31 | 17.68217 | -64.85690 | 2223 ft | 146 kts | 250° |
| 2026-04-24 00:31 | 17.67859 | -64.86687 | 2028 ft | 146 kts | 250° |
| 2026-04-24 00:31 | 17.67506 | -64.87676 | 1837 ft | 146 kts | 250° |
| 2026-04-24 00:31 | 17.67153 | -64.88658 | 1735 ft | 135 kts | 250° |
| 2026-04-24 00:32 | 17.66850 | -64.89484 | 1900 ft | 106 kts | 249° |
| 2026-04-24 00:32 | 17.66603 | -64.90153 | 2145 ft | 96 kts | 251° |
| 2026-04-24 00:32 | 17.66586 | -64.90747 | 2374 ft | 79 kts | 327° |
| 2026-04-24 00:32 | 17.67044 | -64.90721 | 2524 ft | 65 kts | 42° |
| 2026-04-24 00:33 | 17.67394 | -64.90353 | 2678 ft | 85 kts | 52° |
| 2026-04-24 00:33 | 17.67867 | -64.89802 | 2331 ft | 118 kts | 47° |
| 2026-04-24 00:33 | 17.68504 | -64.89162 | 1870 ft | 128 kts | 44° |
| 2026-04-24 00:33 | 17.68977 | -64.88457 | 1717 ft | 107 kts | 63° |
| 2026-04-24 00:34 | 17.69222 | -64.87746 | 1582 ft | 103 kts | 74° |
| 2026-04-24 00:34 | 17.69346 | -64.87033 | 1385 ft | 102 kts | 70° |
| 2026-04-24 00:34 | 17.69547 | -64.86284 | 1130 ft | 106 kts | 77° |
| 2026-04-24 00:34 | 17.69577 | -64.85529 | 992 ft | 100 kts | 83° |
| 2026-04-24 00:35 | 17.69651 | -64.84815 | 850 ft | 100 kts | 79° |
| 2026-04-24 00:35 | 17.69744 | -64.84013 | 587 ft | 117 kts | 81° |
| 2026-04-24 00:35 | 17.69827 | -64.83196 | 483 ft | 108 kts | 82° |
| 2026-04-24 00:35 | 17.69875 | -64.82435 | 398 ft | 102 kts | 81° |
| 2026-04-24 00:36 | 17.69972 | -64.81736 | 305 ft | 92 kts | 78° |
| 2026-04-24 00:36 | 17.70057 | -64.81082 | 199 ft | 82 kts | 76° |
| 2026-04-24 00:36 | 17.70109 | -64.80585 | 151 ft | 56 kts | 72° |
| 2026-04-24 00:36 | 17.70146 | -64.80235 | 100 ft | 37 kts | 79° |
| 2026-04-24 00:37 | 17.70166 | -64.80026 | 80 ft | 22 kts | 88° |
| 2026-04-24 00:37 | 17.70150 | -64.79871 | 66 ft | 17 kts | 133° |
| 2026-04-24 00:37 | 17.70094 | -64.79785 | 57 ft | 11 kts | 189° |
| 2026-04-24 00:37 | 17.70009 | -64.79804 | 51 ft | 8 kts | 257° |
| 2026-04-24 00:38 | 17.69976 | -64.79883 | 48 ft | 15 kts | 265° |
| 2026-04-24 00:38 | 17.69948 | -64.79968 | 49 ft | 11 kts | 225° |
| 2026-04-24 00:38 | 17.69912 | -64.80001 | 48 ft | 3 kts | 185° |
| 2026-04-24 00:38 | 17.69900 | -64.80009 | 43 ft | 0 kts | 179° |
| 2026-04-24 00:39 | 17.69898 | -64.80009 | 31 ft | 1 kts | 178° |
| 2026-04-24 00:39 | 17.69895 | -64.80009 | 29 ft | 0 kts | 177° |